sensor_id;sensor_type;location;lat;lon;timestamp;P1;durP1;ratioP1;P2;durP2;ratioP2
6029;SDS011;3043;42.682;23.376;2023-05-07T00:01:13;14.90;;;10.73;;
6029;SDS011;3043;42.682;23.376;2023-05-07T00:03:39;11.80;;;9.03;;
6029;SDS011;3043;42.682;23.376;2023-05-07T00:06:04;11.77;;;9.03;;
6029;SDS011;3043;42.682;23.376;2023-05-07T00:08:30;16.50;;;11.90;;
6029;SDS011;3043;42.682;23.376;2023-05-07T00:10:55;15.67;;;11.30;;
6029;SDS011;3043;42.682;23.376;2023-05-07T00:13:21;18.23;;;11.97;;
6029;SDS011;3043;42.682;23.376;2023-05-07T00:15:46;15.33;;;11.90;;
6029;SDS011;3043;42.682;23.376;2023-05-07T00:18:11;15.40;;;11.83;;
6029;SDS011;3043;42.682;23.376;2023-05-07T00:20:37;14.57;;;10.77;;
6029;SDS011;3043;42.682;23.376;2023-05-07T00:23:02;16.80;;;12.03;;
6029;SDS011;3043;42.682;23.376;2023-05-07T00:25:28;15.53;;;11.20;;
6029;SDS011;3043;42.682;23.376;2023-05-07T00:27:53;15.20;;;10.87;;
6029;SDS011;3043;42.682;23.376;2023-05-07T00:30:19;16.53;;;11.80;;
6029;SDS011;3043;42.682;23.376;2023-05-07T00:32:44;17.70;;;10.97;;
6029;SDS011;3043;42.682;23.376;2023-05-07T00:35:10;12.30;;;9.27;;
6029;SDS011;3043;42.682;23.376;2023-05-07T00:37:36;13.40;;;9.93;;
6029;SDS011;3043;42.682;23.376;2023-05-07T00:40:02;14.53;;;9.10;;
6029;SDS011;3043;42.682;23.376;2023-05-07T00:42:29;13.43;;;8.27;;
6029;SDS011;3043;42.682;23.376;2023-05-07T00:44:57;17.27;;;11.27;;
6029;SDS011;3043;42.682;23.376;2023-05-07T00:47:23;14.80;;;10.43;;
6029;SDS011;3043;42.682;23.376;2023-05-07T00:49:50;19.83;;;13.53;;
6029;SDS011;3043;42.682;23.376;2023-05-07T00:52:17;30.43;;;20.10;;
6029;SDS011;3043;42.682;23.376;2023-05-07T00:54:45;14.07;;;9.40;;
6029;SDS011;3043;42.682;23.376;2023-05-07T00:57:10;11.83;;;8.07;;
6029;SDS011;3043;42.682;23.376;2023-05-07T00:59:36;15.60;;;9.70;;
6029;SDS011;3043;42.682;23.376;2023-05-07T01:02:02;10.87;;;8.00;;
6029;SDS011;3043;42.682;23.376;2023-05-07T01:04:28;12.43;;;8.00;;
6029;SDS011;3043;42.682;23.376;2023-05-07T01:06:54;10.00;;;6.67;;
6029;SDS011;3043;42.682;23.376;2023-05-07T01:09:21;9.83;;;6.27;;
6029;SDS011;3043;42.682;23.376;2023-05-07T01:11:49;11.03;;;7.60;;
6029;SDS011;3043;42.682;23.376;2023-05-07T01:14:16;11.50;;;6.80;;
6029;SDS011;3043;42.682;23.376;2023-05-07T01:16:42;9.77;;;6.57;;
6029;SDS011;3043;42.682;23.376;2023-05-07T01:19:08;12.70;;;6.30;;
6029;SDS011;3043;42.682;23.376;2023-05-07T01:21:36;8.60;;;5.80;;
6029;SDS011;3043;42.682;23.376;2023-05-07T01:24:04;11.80;;;6.17;;
6029;SDS011;3043;42.682;23.376;2023-05-07T01:26:30;10.27;;;5.63;;
6029;SDS011;3043;42.682;23.376;2023-05-07T01:28:55;9.23;;;5.90;;
6029;SDS011;3043;42.682;23.376;2023-05-07T01:31:21;10.37;;;6.10;;
6029;SDS011;3043;42.682;23.376;2023-05-07T01:33:49;9.63;;;6.20;;
6029;SDS011;3043;42.682;23.376;2023-05-07T01:36:15;8.87;;;5.87;;
6029;SDS011;3043;42.682;23.376;2023-05-07T01:38:42;9.43;;;6.77;;
6029;SDS011;3043;42.682;23.376;2023-05-07T01:41:08;13.37;;;7.27;;
6029;SDS011;3043;42.682;23.376;2023-05-07T01:43:33;10.27;;;7.00;;
6029;SDS011;3043;42.682;23.376;2023-05-07T01:45:59;10.60;;;7.77;;
6029;SDS011;3043;42.682;23.376;2023-05-07T01:48:26;13.90;;;8.60;;
6029;SDS011;3043;42.682;23.376;2023-05-07T01:50:52;14.83;;;8.50;;
6029;SDS011;3043;42.682;23.376;2023-05-07T01:53:18;16.17;;;8.93;;
6029;SDS011;3043;42.682;23.376;2023-05-07T01:55:44;13.03;;;8.53;;
6029;SDS011;3043;42.682;23.376;2023-05-07T01:58:10;12.80;;;8.27;;
6029;SDS011;3043;42.682;23.376;2023-05-07T02:00:36;11.43;;;7.83;;
6029;SDS011;3043;42.682;23.376;2023-05-07T02:03:01;12.30;;;7.47;;
6029;SDS011;3043;42.682;23.376;2023-05-07T02:05:26;12.50;;;8.30;;
6029;SDS011;3043;42.682;23.376;2023-05-07T02:07:52;19.30;;;13.07;;
6029;SDS011;3043;42.682;23.376;2023-05-07T02:10:17;15.53;;;9.80;;
6029;SDS011;3043;42.682;23.376;2023-05-07T02:12:43;10.93;;;8.40;;
6029;SDS011;3043;42.682;23.376;2023-05-07T02:15:08;11.63;;;8.43;;
6029;SDS011;3043;42.682;23.376;2023-05-07T02:17:34;13.80;;;8.57;;
6029;SDS011;3043;42.682;23.376;2023-05-07T02:20:00;13.17;;;8.80;;
6029;SDS011;3043;42.682;23.376;2023-05-07T02:22:25;11.90;;;8.97;;
6029;SDS011;3043;42.682;23.376;2023-05-07T02:24:51;11.70;;;8.87;;
6029;SDS011;3043;42.682;23.376;2023-05-07T02:27:16;15.60;;;9.37;;
6029;SDS011;3043;42.682;23.376;2023-05-07T02:29:41;13.17;;;9.50;;
6029;SDS011;3043;42.682;23.376;2023-05-07T02:32:07;14.30;;;9.60;;
6029;SDS011;3043;42.682;23.376;2023-05-07T02:34:32;17.43;;;11.40;;
6029;SDS011;3043;42.682;23.376;2023-05-07T02:36:58;17.23;;;11.93;;
6029;SDS011;3043;42.682;23.376;2023-05-07T02:39:23;15.43;;;10.40;;
6029;SDS011;3043;42.682;23.376;2023-05-07T02:41:49;13.83;;;10.30;;
6029;SDS011;3043;42.682;23.376;2023-05-07T02:44:14;14.73;;;10.87;;
6029;SDS011;3043;42.682;23.376;2023-05-07T02:46:40;15.17;;;10.80;;
6029;SDS011;3043;42.682;23.376;2023-05-07T02:49:05;16.50;;;10.90;;
6029;SDS011;3043;42.682;23.376;2023-05-07T02:51:31;16.03;;;11.33;;
6029;SDS011;3043;42.682;23.376;2023-05-07T02:53:56;15.43;;;11.20;;
6029;SDS011;3043;42.682;23.376;2023-05-07T02:56:22;19.37;;;14.30;;
6029;SDS011;3043;42.682;23.376;2023-05-07T02:58:47;25.77;;;18.47;;
6029;SDS011;3043;42.682;23.376;2023-05-07T03:01:13;16.37;;;11.23;;
6029;SDS011;3043;42.682;23.376;2023-05-07T03:03:39;15.33;;;11.50;;
6029;SDS011;3043;42.682;23.376;2023-05-07T03:06:05;19.80;;;12.23;;
6029;SDS011;3043;42.682;23.376;2023-05-07T03:08:31;17.47;;;11.90;;
6029;SDS011;3043;42.682;23.376;2023-05-07T03:10:57;19.30;;;12.10;;
6029;SDS011;3043;42.682;23.376;2023-05-07T03:13:23;21.80;;;12.90;;
6029;SDS011;3043;42.682;23.376;2023-05-07T03:15:48;19.57;;;13.30;;
6029;SDS011;3043;42.682;23.376;2023-05-07T03:18:14;17.00;;;12.50;;
6029;SDS011;3043;42.682;23.376;2023-05-07T03:20:39;16.87;;;12.60;;
6029;SDS011;3043;42.682;23.376;2023-05-07T03:23:05;18.53;;;13.70;;
6029;SDS011;3043;42.682;23.376;2023-05-07T03:25:31;18.00;;;12.80;;
6029;SDS011;3043;42.682;23.376;2023-05-07T03:27:57;23.83;;;14.83;;
6029;SDS011;3043;42.682;23.376;2023-05-07T03:30:23;18.20;;;14.07;;
6029;SDS011;3043;42.682;23.376;2023-05-07T03:32:48;18.70;;;13.17;;
6029;SDS011;3043;42.682;23.376;2023-05-07T03:35:14;16.37;;;12.67;;
6029;SDS011;3043;42.682;23.376;2023-05-07T03:37:39;19.40;;;13.63;;
6029;SDS011;3043;42.682;23.376;2023-05-07T03:40:05;19.27;;;13.47;;
6029;SDS011;3043;42.682;23.376;2023-05-07T03:42:32;20.97;;;13.50;;
6029;SDS011;3043;42.682;23.376;2023-05-07T03:44:57;21.10;;;15.30;;
6029;SDS011;3043;42.682;23.376;2023-05-07T03:47:23;25.47;;;18.00;;
6029;SDS011;3043;42.682;23.376;2023-05-07T03:49:48;18.73;;;13.73;;
6029;SDS011;3043;42.682;23.376;2023-05-07T03:52:15;15.97;;;12.00;;
6029;SDS011;3043;42.682;23.376;2023-05-07T03:54:41;16.53;;;12.73;;
6029;SDS011;3043;42.682;23.376;2023-05-07T03:57:06;16.77;;;10.87;;
6029;SDS011;3043;42.682;23.376;2023-05-07T03:59:31;17.93;;;11.60;;
6029;SDS011;3043;42.682;23.376;2023-05-07T04:01:57;15.40;;;10.60;;
6029;SDS011;3043;42.682;23.376;2023-05-07T04:04:23;15.77;;;10.30;;
6029;SDS011;3043;42.682;23.376;2023-05-07T04:06:48;16.07;;;10.13;;
6029;SDS011;3043;42.682;23.376;2023-05-07T04:09:13;14.00;;;10.70;;
6029;SDS011;3043;42.682;23.376;2023-05-07T04:11:39;15.93;;;11.33;;
6029;SDS011;3043;42.682;23.376;2023-05-07T04:14:07;14.97;;;11.10;;
6029;SDS011;3043;42.682;23.376;2023-05-07T04:16:34;13.17;;;10.73;;
6029;SDS011;3043;42.682;23.376;2023-05-07T04:19:00;14.53;;;10.67;;
6029;SDS011;3043;42.682;23.376;2023-05-07T04:21:25;14.47;;;10.37;;
6029;SDS011;3043;42.682;23.376;2023-05-07T04:23:51;18.23;;;11.87;;
6029;SDS011;3043;42.682;23.376;2023-05-07T04:26:16;15.90;;;10.57;;
6029;SDS011;3043;42.682;23.376;2023-05-07T04:28:42;15.50;;;11.33;;
6029;SDS011;3043;42.682;23.376;2023-05-07T04:31:07;14.80;;;10.90;;
6029;SDS011;3043;42.682;23.376;2023-05-07T04:33:33;18.93;;;11.53;;
6029;SDS011;3043;42.682;23.376;2023-05-07T04:36:02;18.53;;;11.23;;
6029;SDS011;3043;42.682;23.376;2023-05-07T04:38:32;16.63;;;11.87;;
6029;SDS011;3043;42.682;23.376;2023-05-07T04:41:02;15.70;;;11.53;;
6029;SDS011;3043;42.682;23.376;2023-05-07T04:43:29;18.37;;;11.00;;
6029;SDS011;3043;42.682;23.376;2023-05-07T04:45:54;16.60;;;12.40;;
6029;SDS011;3043;42.682;23.376;2023-05-07T04:48:20;16.70;;;11.87;;
6029;SDS011;3043;42.682;23.376;2023-05-07T04:50:48;14.53;;;11.30;;
6029;SDS011;3043;42.682;23.376;2023-05-07T04:53:17;16.07;;;11.40;;
6029;SDS011;3043;42.682;23.376;2023-05-07T04:55:43;16.27;;;11.73;;
6029;SDS011;3043;42.682;23.376;2023-05-07T04:58:09;19.53;;;11.23;;
6029;SDS011;3043;42.682;23.376;2023-05-07T05:00:35;14.83;;;10.73;;
6029;SDS011;3043;42.682;23.376;2023-05-07T05:03:01;13.73;;;11.03;;
6029;SDS011;3043;42.682;23.376;2023-05-07T05:05:26;14.50;;;10.23;;
6029;SDS011;3043;42.682;23.376;2023-05-07T05:07:52;13.63;;;10.60;;
6029;SDS011;3043;42.682;23.376;2023-05-07T05:10:17;14.53;;;11.00;;
6029;SDS011;3043;42.682;23.376;2023-05-07T05:12:43;13.00;;;10.47;;
6029;SDS011;3043;42.682;23.376;2023-05-07T05:15:10;15.23;;;10.50;;
6029;SDS011;3043;42.682;23.376;2023-05-07T05:17:36;12.83;;;9.80;;
6029;SDS011;3043;42.682;23.376;2023-05-07T05:20:02;12.97;;;10.00;;
6029;SDS011;3043;42.682;23.376;2023-05-07T05:22:27;13.20;;;10.00;;
6029;SDS011;3043;42.682;23.376;2023-05-07T05:24:56;14.63;;;10.20;;
6029;SDS011;3043;42.682;23.376;2023-05-07T05:27:21;15.27;;;10.60;;
6029;SDS011;3043;42.682;23.376;2023-05-07T05:29:47;13.40;;;9.10;;
6029;SDS011;3043;42.682;23.376;2023-05-07T05:32:12;14.60;;;9.75;;
6029;SDS011;3043;42.682;23.376;2023-05-07T05:34:37;11.67;;;9.33;;
6029;SDS011;3043;42.682;23.376;2023-05-07T05:37:05;12.10;;;9.17;;
6029;SDS011;3043;42.682;23.376;2023-05-07T05:39:31;12.30;;;9.55;;
6029;SDS011;3043;42.682;23.376;2023-05-07T05:41:57;14.03;;;9.47;;
6029;SDS011;3043;42.682;23.376;2023-05-07T05:44:22;11.70;;;8.93;;
6029;SDS011;3043;42.682;23.376;2023-05-07T05:46:47;13.73;;;10.90;;
6029;SDS011;3043;42.682;23.376;2023-05-07T05:49:14;14.57;;;10.53;;
6029;SDS011;3043;42.682;23.376;2023-05-07T05:51:40;15.73;;;11.23;;
6029;SDS011;3043;42.682;23.376;2023-05-07T05:54:05;12.83;;;10.17;;
6029;SDS011;3043;42.682;23.376;2023-05-07T05:56:31;15.37;;;10.53;;
6029;SDS011;3043;42.682;23.376;2023-05-07T05:58:56;13.35;;;10.20;;
6029;SDS011;3043;42.682;23.376;2023-05-07T06:01:22;12.50;;;10.23;;
6029;SDS011;3043;42.682;23.376;2023-05-07T06:03:47;12.13;;;10.07;;
6029;SDS011;3043;42.682;23.376;2023-05-07T06:06:13;13.80;;;9.95;;
6029;SDS011;3043;42.682;23.376;2023-05-07T06:08:39;15.00;;;10.00;;
6029;SDS011;3043;42.682;23.376;2023-05-07T06:11:05;13.47;;;11.03;;
6029;SDS011;3043;42.682;23.376;2023-05-07T06:13:30;13.15;;;10.18;;
6029;SDS011;3043;42.682;23.376;2023-05-07T06:15:55;14.13;;;10.48;;
6029;SDS011;3043;42.682;23.376;2023-05-07T06:18:21;15.55;;;10.18;;
6029;SDS011;3043;42.682;23.376;2023-05-07T06:20:46;17.40;;;9.20;;
6029;SDS011;3043;42.682;23.376;2023-05-07T06:23:12;15.85;;;10.13;;
6029;SDS011;3043;42.682;23.376;2023-05-07T06:25:37;12.68;;;9.25;;
6029;SDS011;3043;42.682;23.376;2023-05-07T06:28:03;11.75;;;8.95;;
6029;SDS011;3043;42.682;23.376;2023-05-07T06:30:28;11.55;;;9.52;;
6029;SDS011;3043;42.682;23.376;2023-05-07T06:32:54;12.18;;;9.52;;
6029;SDS011;3043;42.682;23.376;2023-05-07T06:35:19;10.98;;;9.50;;
6029;SDS011;3043;42.682;23.376;2023-05-07T06:37:45;12.63;;;9.52;;
6029;SDS011;3043;42.682;23.376;2023-05-07T06:40:10;12.45;;;9.52;;
6029;SDS011;3043;42.682;23.376;2023-05-07T06:42:36;12.90;;;10.38;;
6029;SDS011;3043;42.682;23.376;2023-05-07T06:45:02;12.27;;;9.30;;
6029;SDS011;3043;42.682;23.376;2023-05-07T06:47:28;11.98;;;9.60;;
6029;SDS011;3043;42.682;23.376;2023-05-07T06:49:54;11.50;;;9.32;;
6029;SDS011;3043;42.682;23.376;2023-05-07T06:52:19;14.00;;;10.13;;
6029;SDS011;3043;42.682;23.376;2023-05-07T06:54:45;13.27;;;10.13;;
6029;SDS011;3043;42.682;23.376;2023-05-07T06:57:10;15.60;;;10.80;;
6029;SDS011;3043;42.682;23.376;2023-05-07T06:59:36;14.23;;;10.00;;
6029;SDS011;3043;42.682;23.376;2023-05-07T07:02:01;14.07;;;10.73;;
6029;SDS011;3043;42.682;23.376;2023-05-07T07:04:27;13.43;;;9.90;;
6029;SDS011;3043;42.682;23.376;2023-05-07T07:06:53;12.45;;;10.02;;
6029;SDS011;3043;42.682;23.376;2023-05-07T07:09:19;13.98;;;10.00;;
6029;SDS011;3043;42.682;23.376;2023-05-07T07:11:44;12.82;;;10.57;;
6029;SDS011;3043;42.682;23.376;2023-05-07T07:14:10;12.95;;;9.98;;
6029;SDS011;3043;42.682;23.376;2023-05-07T07:16:35;17.30;;;10.63;;
6029;SDS011;3043;42.682;23.376;2023-05-07T07:19:01;14.63;;;10.07;;
6029;SDS011;3043;42.682;23.376;2023-05-07T07:21:26;14.55;;;11.05;;
6029;SDS011;3043;42.682;23.376;2023-05-07T07:23:52;13.65;;;11.30;;
6029;SDS011;3043;42.682;23.376;2023-05-07T07:26:19;14.70;;;11.93;;
6029;SDS011;3043;42.682;23.376;2023-05-07T07:28:45;13.05;;;10.15;;
6029;SDS011;3043;42.682;23.376;2023-05-07T07:31:11;16.05;;;12.02;;
6029;SDS011;3043;42.682;23.376;2023-05-07T07:33:37;16.55;;;11.35;;
6029;SDS011;3043;42.682;23.376;2023-05-07T07:36:03;15.98;;;11.60;;
6029;SDS011;3043;42.682;23.376;2023-05-07T07:38:30;13.95;;;10.80;;
6029;SDS011;3043;42.682;23.376;2023-05-07T07:40:59;15.65;;;11.18;;
6029;SDS011;3043;42.682;23.376;2023-05-07T07:43:25;13.75;;;11.07;;
6029;SDS011;3043;42.682;23.376;2023-05-07T07:45:51;15.60;;;10.73;;
6029;SDS011;3043;42.682;23.376;2023-05-07T07:48:16;15.15;;;10.90;;
6029;SDS011;3043;42.682;23.376;2023-05-07T07:50:41;13.07;;;10.55;;
6029;SDS011;3043;42.682;23.376;2023-05-07T07:53:07;14.63;;;11.88;;
6029;SDS011;3043;42.682;23.376;2023-05-07T07:55:34;15.98;;;12.60;;
6029;SDS011;3043;42.682;23.376;2023-05-07T07:58:03;16.75;;;11.45;;
6029;SDS011;3043;42.682;23.376;2023-05-07T08:00:29;16.17;;;12.07;;
6029;SDS011;3043;42.682;23.376;2023-05-07T08:02:54;16.15;;;11.00;;
6029;SDS011;3043;42.682;23.376;2023-05-07T08:05:19;12.32;;;10.70;;
6029;SDS011;3043;42.682;23.376;2023-05-07T08:07:45;12.13;;;10.57;;
6029;SDS011;3043;42.682;23.376;2023-05-07T08:10:13;15.32;;;10.80;;
6029;SDS011;3043;42.682;23.376;2023-05-07T08:12:45;12.10;;;9.85;;
6029;SDS011;3043;42.682;23.376;2023-05-07T08:15:11;11.75;;;9.77;;
6029;SDS011;3043;42.682;23.376;2023-05-07T08:17:36;12.35;;;9.95;;
6029;SDS011;3043;42.682;23.376;2023-05-07T08:20:01;11.30;;;9.70;;
6029;SDS011;3043;42.682;23.376;2023-05-07T08:22:27;11.98;;;9.77;;
6029;SDS011;3043;42.682;23.376;2023-05-07T08:24:52;13.55;;;9.75;;
6029;SDS011;3043;42.682;23.376;2023-05-07T08:27:18;15.40;;;10.38;;
6029;SDS011;3043;42.682;23.376;2023-05-07T08:29:44;16.17;;;11.35;;
6029;SDS011;3043;42.682;23.376;2023-05-07T08:32:12;13.85;;;10.23;;
6029;SDS011;3043;42.682;23.376;2023-05-07T08:34:37;16.35;;;10.98;;
6029;SDS011;3043;42.682;23.376;2023-05-07T08:37:04;11.43;;;9.23;;
6029;SDS011;3043;42.682;23.376;2023-05-07T08:39:29;13.63;;;10.93;;
6029;SDS011;3043;42.682;23.376;2023-05-07T08:41:55;13.13;;;9.23;;
6029;SDS011;3043;42.682;23.376;2023-05-07T08:44:22;11.90;;;9.38;;
6029;SDS011;3043;42.682;23.376;2023-05-07T08:46:51;11.45;;;8.55;;
6029;SDS011;3043;42.682;23.376;2023-05-07T08:49:19;14.35;;;10.25;;
6029;SDS011;3043;42.682;23.376;2023-05-07T08:51:45;11.30;;;8.27;;
6029;SDS011;3043;42.682;23.376;2023-05-07T08:54:11;9.00;;;6.85;;
6029;SDS011;3043;42.682;23.376;2023-05-07T08:56:41;9.25;;;6.88;;
6029;SDS011;3043;42.682;23.376;2023-05-07T08:59:06;10.32;;;7.93;;
6029;SDS011;3043;42.682;23.376;2023-05-07T09:01:31;11.30;;;7.35;;
6029;SDS011;3043;42.682;23.376;2023-05-07T09:03:57;10.50;;;7.20;;
6029;SDS011;3043;42.682;23.376;2023-05-07T09:06:23;10.27;;;7.10;;
6029;SDS011;3043;42.682;23.376;2023-05-07T09:08:55;13.52;;;8.18;;
6029;SDS011;3043;42.682;23.376;2023-05-07T09:11:23;11.07;;;7.97;;
6029;SDS011;3043;42.682;23.376;2023-05-07T09:13:53;10.68;;;6.82;;
6029;SDS011;3043;42.682;23.376;2023-05-07T09:16:20;11.48;;;7.43;;
6029;SDS011;3043;42.682;23.376;2023-05-07T09:18:47;8.85;;;6.10;;
6029;SDS011;3043;42.682;23.376;2023-05-07T09:21:16;10.93;;;7.20;;
6029;SDS011;3043;42.682;23.376;2023-05-07T09:23:42;8.90;;;6.22;;
6029;SDS011;3043;42.682;23.376;2023-05-07T09:26:08;9.00;;;6.03;;
6029;SDS011;3043;42.682;23.376;2023-05-07T09:28:43;8.70;;;6.68;;
6029;SDS011;3043;42.682;23.376;2023-05-07T09:31:09;7.05;;;5.47;;
6029;SDS011;3043;42.682;23.376;2023-05-07T09:33:36;9.70;;;6.05;;
6029;SDS011;3043;42.682;23.376;2023-05-07T09:36:02;7.60;;;5.30;;
6029;SDS011;3043;42.682;23.376;2023-05-07T09:38:28;7.90;;;5.68;;
6029;SDS011;3043;42.682;23.376;2023-05-07T09:41:03;8.07;;;5.35;;
6029;SDS011;3043;42.682;23.376;2023-05-07T09:43:31;7.45;;;5.60;;
6029;SDS011;3043;42.682;23.376;2023-05-07T09:46:00;7.47;;;5.22;;
6029;SDS011;3043;42.682;23.376;2023-05-07T09:48:29;11.75;;;5.55;;
6029;SDS011;3043;42.682;23.376;2023-05-07T09:50:55;7.97;;;5.03;;
6029;SDS011;3043;42.682;23.376;2023-05-07T09:53:23;6.65;;;4.32;;
6029;SDS011;3043;42.682;23.376;2023-05-07T09:55:49;9.40;;;5.07;;
6029;SDS011;3043;42.682;23.376;2023-05-07T09:58:16;8.70;;;4.90;;
6029;SDS011;3043;42.682;23.376;2023-05-07T10:00:43;10.50;;;6.00;;
6029;SDS011;3043;42.682;23.376;2023-05-07T10:03:10;7.38;;;4.38;;
6029;SDS011;3043;42.682;23.376;2023-05-07T10:05:37;6.13;;;4.03;;
6029;SDS011;3043;42.682;23.376;2023-05-07T10:08:04;7.07;;;4.60;;
6029;SDS011;3043;42.682;23.376;2023-05-07T10:10:30;7.13;;;3.92;;
6029;SDS011;3043;42.682;23.376;2023-05-07T10:12:57;7.55;;;4.75;;
6029;SDS011;3043;42.682;23.376;2023-05-07T10:15:23;11.18;;;5.20;;
6029;SDS011;3043;42.682;23.376;2023-05-07T10:17:50;6.72;;;4.28;;
6029;SDS011;3043;42.682;23.376;2023-05-07T10:20:18;6.88;;;4.60;;
6029;SDS011;3043;42.682;23.376;2023-05-07T10:22:46;5.78;;;3.92;;
6029;SDS011;3043;42.682;23.376;2023-05-07T10:25:17;7.28;;;4.20;;
6029;SDS011;3043;42.682;23.376;2023-05-07T10:27:46;5.78;;;3.72;;
6029;SDS011;3043;42.682;23.376;2023-05-07T10:30:31;6.55;;;4.47;;
6029;SDS011;3043;42.682;23.376;2023-05-07T10:33:32;7.63;;;3.88;;
6029;SDS011;3043;42.682;23.376;2023-05-07T10:36:00;6.43;;;4.07;;
6029;SDS011;3043;42.682;23.376;2023-05-07T10:38:29;7.88;;;4.05;;
6029;SDS011;3043;42.682;23.376;2023-05-07T10:40:55;7.20;;;4.53;;
6029;SDS011;3043;42.682;23.376;2023-05-07T10:43:20;7.40;;;4.93;;
6029;SDS011;3043;42.682;23.376;2023-05-07T10:51:28;9.65;;;4.75;;
6029;SDS011;3043;42.682;23.376;2023-05-07T10:56:39;8.43;;;5.10;;
6029;SDS011;3043;42.682;23.376;2023-05-07T11:01:56;7.97;;;5.75;;
6029;SDS011;3043;42.682;23.376;2023-05-07T11:04:22;8.90;;;5.00;;
6029;SDS011;3043;42.682;23.376;2023-05-07T11:15:08;8.80;;;5.10;;
6029;SDS011;3043;42.682;23.376;2023-05-07T11:17:49;8.43;;;5.03;;
6029;SDS011;3043;42.682;23.376;2023-05-07T11:20:18;7.00;;;4.68;;
6029;SDS011;3043;42.682;23.376;2023-05-07T11:22:44;7.60;;;4.75;;
6029;SDS011;3043;42.682;23.376;2023-05-07T11:25:09;6.85;;;4.70;;
6029;SDS011;3043;42.682;23.376;2023-05-07T11:27:35;6.90;;;4.85;;
6029;SDS011;3043;42.682;23.376;2023-05-07T11:30:01;9.07;;;4.70;;
6029;SDS011;3043;42.682;23.376;2023-05-07T11:32:27;7.35;;;4.38;;
6029;SDS011;3043;42.682;23.376;2023-05-07T11:34:55;9.10;;;4.57;;
6029;SDS011;3043;42.682;23.376;2023-05-07T11:37:22;6.40;;;4.40;;
6029;SDS011;3043;42.682;23.376;2023-05-07T11:39:49;7.05;;;4.53;;
6029;SDS011;3043;42.682;23.376;2023-05-07T11:45:02;7.85;;;4.60;;
6029;SDS011;3043;42.682;23.376;2023-05-07T11:47:31;8.55;;;4.55;;
6029;SDS011;3043;42.682;23.376;2023-05-07T11:50:01;7.25;;;4.97;;
6029;SDS011;3043;42.682;23.376;2023-05-07T11:52:28;7.55;;;5.18;;
6029;SDS011;3043;42.682;23.376;2023-05-07T11:54:55;9.82;;;4.80;;
6029;SDS011;3043;42.682;23.376;2023-05-07T11:57:22;7.35;;;5.20;;
6029;SDS011;3043;42.682;23.376;2023-05-07T11:59:52;8.93;;;4.70;;
6029;SDS011;3043;42.682;23.376;2023-05-07T12:02:19;9.20;;;5.37;;
6029;SDS011;3043;42.682;23.376;2023-05-07T12:04:44;6.73;;;4.87;;
6029;SDS011;3043;42.682;23.376;2023-05-07T12:07:13;8.77;;;4.45;;
6029;SDS011;3043;42.682;23.376;2023-05-07T12:09:40;7.22;;;4.72;;
6029;SDS011;3043;42.682;23.376;2023-05-07T12:12:09;8.63;;;5.70;;
6029;SDS011;3043;42.682;23.376;2023-05-07T12:14:38;8.40;;;5.40;;
6029;SDS011;3043;42.682;23.376;2023-05-07T12:17:05;7.83;;;5.17;;
6029;SDS011;3043;42.682;23.376;2023-05-07T12:19:32;8.40;;;5.30;;
6029;SDS011;3043;42.682;23.376;2023-05-07T12:21:58;7.43;;;5.27;;
6029;SDS011;3043;42.682;23.376;2023-05-07T12:24:24;7.93;;;4.80;;
6029;SDS011;3043;42.682;23.376;2023-05-07T12:26:50;9.80;;;5.07;;
6029;SDS011;3043;42.682;23.376;2023-05-07T12:29:15;7.57;;;4.63;;
6029;SDS011;3043;42.682;23.376;2023-05-07T12:31:41;8.47;;;4.87;;
6029;SDS011;3043;42.682;23.376;2023-05-07T12:34:07;8.67;;;5.00;;
6029;SDS011;3043;42.682;23.376;2023-05-07T12:36:39;7.77;;;4.90;;
6029;SDS011;3043;42.682;23.376;2023-05-07T12:39:05;7.10;;;4.60;;
6029;SDS011;3043;42.682;23.376;2023-05-07T12:41:35;9.87;;;4.97;;
6029;SDS011;3043;42.682;23.376;2023-05-07T12:44:17;7.73;;;4.80;;
6029;SDS011;3043;42.682;23.376;2023-05-07T12:46:42;7.23;;;4.57;;
6029;SDS011;3043;42.682;23.376;2023-05-07T12:49:08;7.83;;;4.30;;
6029;SDS011;3043;42.682;23.376;2023-05-07T12:51:34;7.10;;;3.80;;
6029;SDS011;3043;42.682;23.376;2023-05-07T12:54:00;8.37;;;4.50;;
6029;SDS011;3043;42.682;23.376;2023-05-07T12:56:26;6.27;;;3.83;;
6029;SDS011;3043;42.682;23.376;2023-05-07T12:58:51;5.83;;;3.70;;
6029;SDS011;3043;42.682;23.376;2023-05-07T13:01:16;7.33;;;3.70;;
6029;SDS011;3043;42.682;23.376;2023-05-07T13:03:47;6.53;;;3.80;;
6029;SDS011;3043;42.682;23.376;2023-05-07T13:06:13;6.93;;;3.43;;
6029;SDS011;3043;42.682;23.376;2023-05-07T13:08:40;5.70;;;3.33;;
6029;SDS011;3043;42.682;23.376;2023-05-07T13:11:08;7.00;;;4.00;;
6029;SDS011;3043;42.682;23.376;2023-05-07T13:13:35;9.13;;;3.77;;
6029;SDS011;3043;42.682;23.376;2023-05-07T13:16:02;6.90;;;3.27;;
6029;SDS011;3043;42.682;23.376;2023-05-07T13:18:31;6.53;;;3.70;;
6029;SDS011;3043;42.682;23.376;2023-05-07T13:20:57;6.27;;;3.40;;
6029;SDS011;3043;42.682;23.376;2023-05-07T13:23:23;7.30;;;3.70;;
6029;SDS011;3043;42.682;23.376;2023-05-07T13:25:49;6.83;;;3.13;;
6029;SDS011;3043;42.682;23.376;2023-05-07T13:28:15;5.97;;;3.70;;
6029;SDS011;3043;42.682;23.376;2023-05-07T13:30:41;9.40;;;3.80;;
6029;SDS011;3043;42.682;23.376;2023-05-07T13:33:07;5.97;;;3.70;;
6029;SDS011;3043;42.682;23.376;2023-05-07T13:35:33;6.43;;;3.97;;
6029;SDS011;3043;42.682;23.376;2023-05-07T13:37:59;8.97;;;4.07;;
6029;SDS011;3043;42.682;23.376;2023-05-07T13:40:24;7.03;;;3.93;;
6029;SDS011;3043;42.682;23.376;2023-05-07T13:42:50;7.27;;;3.77;;
6029;SDS011;3043;42.682;23.376;2023-05-07T13:45:16;4.63;;;3.17;;
6029;SDS011;3043;42.682;23.376;2023-05-07T13:47:42;6.03;;;3.77;;
6029;SDS011;3043;42.682;23.376;2023-05-07T13:50:09;8.17;;;4.50;;
6029;SDS011;3043;42.682;23.376;2023-05-07T13:52:42;6.60;;;3.90;;
6029;SDS011;3043;42.682;23.376;2023-05-07T13:55:09;5.20;;;3.30;;
6029;SDS011;3043;42.682;23.376;2023-05-07T13:57:37;8.00;;;4.10;;
6029;SDS011;3043;42.682;23.376;2023-05-07T14:00:03;6.47;;;3.63;;
6029;SDS011;3043;42.682;23.376;2023-05-07T14:02:30;6.43;;;4.07;;
6029;SDS011;3043;42.682;23.376;2023-05-07T14:04:56;7.07;;;3.63;;
6029;SDS011;3043;42.682;23.376;2023-05-07T14:07:21;5.57;;;3.47;;
6029;SDS011;3043;42.682;23.376;2023-05-07T14:09:46;7.27;;;3.80;;
6029;SDS011;3043;42.682;23.376;2023-05-07T14:12:12;6.50;;;3.77;;
6029;SDS011;3043;42.682;23.376;2023-05-07T14:14:37;9.10;;;3.93;;
6029;SDS011;3043;42.682;23.376;2023-05-07T14:17:03;7.10;;;4.50;;
6029;SDS011;3043;42.682;23.376;2023-05-07T14:19:28;6.60;;;4.40;;
6029;SDS011;3043;42.682;23.376;2023-05-07T14:21:53;6.60;;;3.70;;
6029;SDS011;3043;42.682;23.376;2023-05-07T14:24:19;9.10;;;4.30;;
6029;SDS011;3043;42.682;23.376;2023-05-07T14:26:45;6.80;;;4.43;;
6029;SDS011;3043;42.682;23.376;2023-05-07T14:29:10;6.13;;;3.77;;
6029;SDS011;3043;42.682;23.376;2023-05-07T14:31:36;6.63;;;3.87;;
6029;SDS011;3043;42.682;23.376;2023-05-07T14:34:01;6.03;;;3.60;;
6029;SDS011;3043;42.682;23.376;2023-05-07T14:36:27;5.07;;;3.70;;
6029;SDS011;3043;42.682;23.376;2023-05-07T14:38:53;6.97;;;3.70;;
6029;SDS011;3043;42.682;23.376;2023-05-07T14:41:24;5.67;;;3.93;;
6029;SDS011;3043;42.682;23.376;2023-05-07T14:43:49;7.00;;;3.80;;
6029;SDS011;3043;42.682;23.376;2023-05-07T14:46:18;7.03;;;4.00;;
6029;SDS011;3043;42.682;23.376;2023-05-07T14:48:44;7.37;;;3.63;;
6029;SDS011;3043;42.682;23.376;2023-05-07T14:51:13;9.03;;;3.63;;
6029;SDS011;3043;42.682;23.376;2023-05-07T14:53:40;6.07;;;3.70;;
6029;SDS011;3043;42.682;23.376;2023-05-07T14:56:06;9.57;;;4.07;;
6029;SDS011;3043;42.682;23.376;2023-05-07T14:58:32;7.90;;;3.93;;
6029;SDS011;3043;42.682;23.376;2023-05-07T15:00:58;6.43;;;3.47;;
6029;SDS011;3043;42.682;23.376;2023-05-07T15:03:24;6.00;;;4.37;;
6029;SDS011;3043;42.682;23.376;2023-05-07T15:05:50;6.80;;;3.97;;